Crane, Oregon
Current Conditions -  °F | °C
As of 1:33 AM on Thursday 18 Dec 2014 (Local Time) from KBNO Reporting Station
Overcast Overcast  
Wind Chill: 32°   Ceiling: 2300
Heat Index: 32°   Visibility: 7mi
Dew Point: 31°   Wind: 0mph
Humidity: 96%   Direction: NA
Pressure: 30"   Gusts: NA
Location:  43.41°N, 118.58°W
Report Text: KBNO 180933Z AUTO 00000KT 7SM BKN023 OVC042 00/M01 A3000 RMK AO2 T00001006
Loading
Personal Weather Stations






























Interactive Weather Map New forecast layout! Learn more

10-Day Weather Forecast

Advertisements
Track Severe Weather on mobile